UKV21CS KFLL-KEYW
Flight info
| Callsign | UKV21CS |
|---|---|
| Flight time | 0h 35m |
| Altitude | 20000 |
| Route | MAYNR3 MAYNR FNTSY FNTSY1 |
| Aircraft | A320/M-SDE3FGIKRWXY/S |
Departure
| Time | 2026-05-05 19:41 |
|---|---|
| Airport | Fort Lauderdale Hollywood International Airport (KFLL) |
Arrival
| Time | 2026-05-05 20:16 |
|---|---|
| Airport | Key West International Airport (KEYW) |
| Time | Latitude | Longitude | Altitude | Speed | Heading |
|---|---|---|---|---|---|
| 2026-05-05 19:22 | 26.07336 | -80.14260 | 23 ft | 0 kts | 263° |
| 2026-05-05 19:27 | 26.07338 | -80.14245 | 23 ft | 4 kts | 264° |
| 2026-05-05 19:27 | 26.07339 | -80.14215 | 22 ft | 4 kts | 278° |
| 2026-05-05 19:28 | 26.07332 | -80.14193 | 23 ft | 4 kts | 345° |
| 2026-05-05 19:28 | 26.07327 | -80.14192 | 23 ft | 0 kts | 0° |
| 2026-05-05 19:32 | 26.07358 | -80.14191 | 22 ft | 11 kts | 0° |
| 2026-05-05 19:32 | 26.07435 | -80.14191 | 24 ft | 11 kts | 359° |
| 2026-05-05 19:32 | 26.07486 | -80.14252 | 24 ft | 14 kts | 276° |
| 2026-05-05 19:33 | 26.07487 | -80.14354 | 24 ft | 13 kts | 270° |
| 2026-05-05 19:33 | 26.07487 | -80.14450 | 25 ft | 13 kts | 270° |
| 2026-05-05 19:33 | 26.07491 | -80.14488 | 25 ft | 0 kts | 293° |
| 2026-05-05 19:35 | 26.07488 | -80.14696 | 24 ft | 24 kts | 271° |
| 2026-05-05 19:35 | 26.07542 | -80.14803 | 23 ft | 15 kts | 307° |
| 2026-05-05 19:35 | 26.07562 | -80.14911 | 21 ft | 15 kts | 270° |
| 2026-05-05 19:35 | 26.07563 | -80.15025 | 19 ft | 14 kts | 271° |
| 2026-05-05 19:36 | 26.07538 | -80.15117 | 18 ft | 12 kts | 216° |
| 2026-05-05 19:36 | 26.07443 | -80.15126 | 20 ft | 18 kts | 179° |
| 2026-05-05 19:36 | 26.07324 | -80.15128 | 20 ft | 16 kts | 181° |
| 2026-05-05 19:36 | 26.07214 | -80.15130 | 21 ft | 17 kts | 181° |
| 2026-05-05 19:37 | 26.07088 | -80.15129 | 23 ft | 18 kts | 180° |
| 2026-05-05 19:37 | 26.06970 | -80.15130 | 24 ft | 18 kts | 180° |
| 2026-05-05 19:37 | 26.06845 | -80.15130 | 23 ft | 19 kts | 180° |
| 2026-05-05 19:37 | 26.06725 | -80.15134 | 24 ft | 14 kts | 197° |
| 2026-05-05 19:38 | 26.06696 | -80.15218 | 25 ft | 12 kts | 272° |
| 2026-05-05 19:38 | 26.06697 | -80.15313 | 26 ft | 14 kts | 270° |
| 2026-05-05 19:38 | 26.06697 | -80.15438 | 30 ft | 22 kts | 269° |
| 2026-05-05 19:38 | 26.06697 | -80.15605 | 24 ft | 22 kts | 270° |
| 2026-05-05 19:39 | 26.06699 | -80.15758 | 23 ft | 17 kts | 271° |
| 2026-05-05 19:39 | 26.06681 | -80.15815 | 24 ft | 0 kts | 221° |
| 2026-05-05 19:39 | 26.06676 | -80.15820 | 22 ft | 5 kts | 214° |
| 2026-05-05 19:40 | 26.06618 | -80.15815 | 20 ft | 12 kts | 153° |
| 2026-05-05 19:40 | 26.06588 | -80.15723 | 22 ft | 22 kts | 92° |
| 2026-05-05 19:40 | 26.06585 | -80.15292 | 24 ft | 92 kts | 90° |
| 2026-05-05 19:40 | 26.06586 | -80.14345 | 69 ft | 145 kts | 89° |
| 2026-05-05 19:41 | 26.06603 | -80.13217 | 715 ft | 148 kts | 86° |
| 2026-05-05 19:41 | 26.06624 | -80.12076 | 1460 ft | 147 kts | 88° |
| 2026-05-05 19:41 | 26.06640 | -80.10918 | 2061 ft | 157 kts | 87° |
| 2026-05-05 19:41 | 26.06658 | -80.09620 | 2460 ft | 179 kts | 88° |
| 2026-05-05 19:42 | 26.06676 | -80.08140 | 2844 ft | 204 kts | 88° |
| 2026-05-05 19:42 | 26.06693 | -80.06475 | 3285 ft | 228 kts | 88° |
| 2026-05-05 19:42 | 26.06709 | -80.04622 | 3737 ft | 252 kts | 89° |
| 2026-05-05 19:42 | 26.06726 | -80.02581 | 4270 ft | 273 kts | 89° |
| 2026-05-05 19:43 | 26.06713 | -80.00439 | 5102 ft | 282 kts | 95° |
| 2026-05-05 19:43 | 26.06141 | -79.98344 | 5927 ft | 289 kts | 121° |
| 2026-05-05 19:43 | 26.04830 | -79.96706 | 6826 ft | 290 kts | 147° |
| 2026-05-05 19:43 | 26.02992 | -79.95832 | 7700 ft | 289 kts | 173° |
| 2026-05-05 19:44 | 26.01008 | -79.95915 | 8593 ft | 286 kts | 198° |
| 2026-05-05 19:44 | 25.99209 | -79.96827 | 9503 ft | 285 kts | 212° |
| 2026-05-05 19:44 | 25.97472 | -79.97922 | 10270 ft | 294 kts | 213° |
| 2026-05-05 19:44 | 25.95632 | -79.99098 | 10556 ft | 317 kts | 213° |
| 2026-05-05 19:45 | 25.93656 | -80.00358 | 10932 ft | 335 kts | 213° |
| 2026-05-05 19:45 | 25.91605 | -80.01650 | 11596 ft | 342 kts | 212° |
| 2026-05-05 19:45 | 25.89518 | -80.02952 | 12327 ft | 346 kts | 213° |
| 2026-05-05 19:45 | 25.87412 | -80.04265 | 13056 ft | 349 kts | 213° |
| 2026-05-05 19:46 | 25.85281 | -80.05594 | 13779 ft | 353 kts | 213° |
| 2026-05-05 19:46 | 25.83130 | -80.06936 | 14401 ft | 357 kts | 213° |
| 2026-05-05 19:46 | 25.80951 | -80.08300 | 14997 ft | 362 kts | 213° |
| 2026-05-05 19:46 | 25.78745 | -80.09683 | 15587 ft | 367 kts | 213° |
| 2026-05-05 19:47 | 25.76504 | -80.11088 | 16213 ft | 372 kts | 214° |
| 2026-05-05 19:47 | 25.74241 | -80.12507 | 16809 ft | 377 kts | 214° |
| 2026-05-05 19:47 | 25.71944 | -80.13947 | 17373 ft | 381 kts | 214° |
| 2026-05-05 19:47 | 25.69619 | -80.15401 | 17944 ft | 386 kts | 214° |
| 2026-05-05 19:48 | 25.67261 | -80.16868 | 18455 ft | 391 kts | 214° |
| 2026-05-05 19:48 | 25.64872 | -80.18353 | 18933 ft | 395 kts | 214° |
| 2026-05-05 19:48 | 25.62467 | -80.19847 | 19441 ft | 398 kts | 214° |
| 2026-05-05 19:48 | 25.60046 | -80.21355 | 19863 ft | 401 kts | 214° |
| 2026-05-05 19:49 | 25.57614 | -80.22870 | 19992 ft | 401 kts | 214° |
| 2026-05-05 19:49 | 25.55988 | -80.23883 | 20024 ft | 408 kts | 214° |
| 2026-05-05 19:49 | 25.52650 | -80.25959 | 20028 ft | 412 kts | 214° |
| 2026-05-05 19:49 | 25.50149 | -80.27512 | 20029 ft | 413 kts | 214° |
| 2026-05-05 19:50 | 25.47639 | -80.29071 | 20024 ft | 413 kts | 214° |
| 2026-05-05 19:50 | 25.45136 | -80.30625 | 20026 ft | 413 kts | 214° |
| 2026-05-05 19:50 | 25.42631 | -80.32178 | 20026 ft | 413 kts | 214° |
| 2026-05-05 19:50 | 25.40125 | -80.33734 | 20027 ft | 413 kts | 214° |
| 2026-05-05 19:51 | 25.37621 | -80.35289 | 20027 ft | 413 kts | 214° |
| 2026-05-05 19:51 | 25.35117 | -80.36844 | 20027 ft | 413 kts | 214° |
| 2026-05-05 19:51 | 25.32613 | -80.38400 | 20020 ft | 413 kts | 214° |
| 2026-05-05 19:51 | 25.30106 | -80.39955 | 20020 ft | 413 kts | 214° |
| 2026-05-05 19:52 | 25.28443 | -80.40983 | 20020 ft | 413 kts | 214° |
| 2026-05-05 19:52 | 25.25937 | -80.42530 | 20021 ft | 413 kts | 213° |
| 2026-05-05 19:52 | 25.23368 | -80.43973 | 20020 ft | 417 kts | 207° |
| 2026-05-05 19:52 | 25.20604 | -80.44989 | 20024 ft | 420 kts | 201° |
| 2026-05-05 19:53 | 25.17797 | -80.45902 | 20024 ft | 420 kts | 201° |
| 2026-05-05 19:53 | 25.14992 | -80.46820 | 20021 ft | 420 kts | 201° |
| 2026-05-05 19:53 | 25.12188 | -80.47740 | 20022 ft | 420 kts | 201° |
| 2026-05-05 19:53 | 25.09387 | -80.48660 | 20022 ft | 420 kts | 201° |
| 2026-05-05 19:54 | 25.06582 | -80.49579 | 20026 ft | 420 kts | 201° |
| 2026-05-05 19:54 | 25.03784 | -80.50497 | 20236 ft | 419 kts | 201° |
| 2026-05-05 19:54 | 25.01007 | -80.51409 | 20839 ft | 419 kts | 201° |
| 2026-05-05 19:54 | 24.98234 | -80.52322 | 20988 ft | 422 kts | 201° |
| 2026-05-05 19:55 | 24.95422 | -80.53241 | 21033 ft | 417 kts | 201° |
| 2026-05-05 19:55 | 24.92623 | -80.53878 | 21033 ft | 410 kts | 187° |
| 2026-05-05 19:55 | 24.89772 | -80.53669 | 21038 ft | 412 kts | 176° |
| 2026-05-05 19:55 | 24.86974 | -80.53243 | 21032 ft | 401 kts | 176° |
| 2026-05-05 19:56 | 24.84237 | -80.52809 | 21032 ft | 390 kts | 176° |
| 2026-05-05 19:56 | 24.81605 | -80.52383 | 21034 ft | 376 kts | 176° |
| 2026-05-05 19:56 | 24.79032 | -80.51961 | 21035 ft | 372 kts | 176° |
| 2026-05-05 19:56 | 24.76472 | -80.51539 | 21035 ft | 371 kts | 176° |
| 2026-05-05 19:57 | 24.73918 | -80.51188 | 21034 ft | 367 kts | 184° |
| 2026-05-05 19:57 | 24.71462 | -80.51502 | 21040 ft | 347 kts | 202° |
| 2026-05-05 19:57 | 24.69304 | -80.52556 | 21034 ft | 334 kts | 219° |
| 2026-05-05 19:57 | 24.67573 | -80.54198 | 20931 ft | 330 kts | 234° |
| 2026-05-05 19:58 | 24.66335 | -80.56317 | 20268 ft | 329 kts | 252° |
| 2026-05-05 19:58 | 24.65749 | -80.58664 | 19995 ft | 309 kts | 267° |
| 2026-05-05 19:58 | 24.65733 | -80.60933 | 19838 ft | 286 kts | 280° |
| 2026-05-05 19:58 | 24.66163 | -80.63011 | 19493 ft | 274 kts | 288° |
| 2026-05-05 19:59 | 24.66713 | -80.65002 | 19011 ft | 271 kts | 289° |
| 2026-05-05 19:59 | 24.67262 | -80.66981 | 18521 ft | 270 kts | 289° |
| 2026-05-05 19:59 | 24.67809 | -80.68947 | 17978 ft | 268 kts | 289° |
| 2026-05-05 19:59 | 24.68348 | -80.70883 | 17434 ft | 267 kts | 288° |
| 2026-05-05 20:00 | 24.68889 | -80.72825 | 16916 ft | 265 kts | 288° |
| 2026-05-05 20:00 | 24.69428 | -80.74760 | 16404 ft | 263 kts | 288° |
| 2026-05-05 20:00 | 24.69959 | -80.76679 | 15923 ft | 262 kts | 287° |
| 2026-05-05 20:00 | 24.70487 | -80.78589 | 15445 ft | 260 kts | 287° |
| 2026-05-05 20:01 | 24.71012 | -80.80497 | 15015 ft | 264 kts | 287° |
| 2026-05-05 20:01 | 24.71550 | -80.82456 | 14661 ft | 270 kts | 286° |
| 2026-05-05 20:01 | 24.72094 | -80.84435 | 14315 ft | 270 kts | 286° |
| 2026-05-05 20:01 | 24.72638 | -80.86411 | 13993 ft | 270 kts | 286° |
| 2026-05-05 20:02 | 24.73184 | -80.88391 | 13645 ft | 271 kts | 285° |
| 2026-05-05 20:02 | 24.73733 | -80.90380 | 13292 ft | 272 kts | 285° |
| 2026-05-05 20:02 | 24.74281 | -80.92368 | 12947 ft | 272 kts | 286° |
| 2026-05-05 20:02 | 24.74839 | -80.94402 | 12603 ft | 283 kts | 286° |
| 2026-05-05 20:03 | 24.75410 | -80.96482 | 12242 ft | 284 kts | 285° |
| 2026-05-05 20:03 | 24.75950 | -80.98571 | 11868 ft | 283 kts | 281° |
| 2026-05-05 20:03 | 24.76145 | -81.00717 | 11514 ft | 282 kts | 269° |
| 2026-05-05 20:03 | 24.75918 | -81.02858 | 11107 ft | 283 kts | 258° |
| 2026-05-05 20:04 | 24.75273 | -81.04920 | 10643 ft | 288 kts | 246° |
| 2026-05-05 20:04 | 24.74265 | -81.06825 | 10349 ft | 286 kts | 240° |
| 2026-05-05 20:04 | 24.73225 | -81.08672 | 10104 ft | 280 kts | 240° |
| 2026-05-05 20:04 | 24.72211 | -81.10482 | 9905 ft | 276 kts | 240° |
| 2026-05-05 20:05 | 24.71205 | -81.12281 | 9775 ft | 276 kts | 240° |
| 2026-05-05 20:05 | 24.70202 | -81.14078 | 9647 ft | 276 kts | 240° |
| 2026-05-05 20:05 | 24.69214 | -81.15850 | 9518 ft | 275 kts | 240° |
| 2026-05-05 20:05 | 24.68212 | -81.17641 | 9278 ft | 275 kts | 240° |
| 2026-05-05 20:06 | 24.67212 | -81.19424 | 8917 ft | 273 kts | 240° |
| 2026-05-05 20:06 | 24.66216 | -81.21198 | 8538 ft | 272 kts | 240° |
| 2026-05-05 20:06 | 24.65229 | -81.22964 | 8163 ft | 271 kts | 240° |
| 2026-05-05 20:06 | 24.64110 | -81.24628 | 7820 ft | 270 kts | 231° |
| 2026-05-05 20:07 | 24.62880 | -81.26191 | 7538 ft | 270 kts | 231° |
| 2026-05-05 20:07 | 24.61655 | -81.27751 | 7257 ft | 269 kts | 231° |
| 2026-05-05 20:07 | 24.60433 | -81.29307 | 6975 ft | 269 kts | 231° |
| 2026-05-05 20:07 | 24.59211 | -81.30864 | 6690 ft | 269 kts | 231° |
| 2026-05-05 20:08 | 24.57991 | -81.32418 | 6399 ft | 268 kts | 231° |
| 2026-05-05 20:08 | 24.56848 | -81.34022 | 6103 ft | 265 kts | 241° |
| 2026-05-05 20:08 | 24.56135 | -81.35872 | 5788 ft | 262 kts | 257° |
| 2026-05-05 20:08 | 24.55923 | -81.37846 | 5357 ft | 260 kts | 270° |
| 2026-05-05 20:09 | 24.55915 | -81.39831 | 4915 ft | 260 kts | 270° |
| 2026-05-05 20:09 | 24.55903 | -81.41794 | 4560 ft | 257 kts | 270° |
| 2026-05-05 20:09 | 24.55887 | -81.43705 | 4436 ft | 244 kts | 270° |
| 2026-05-05 20:09 | 24.55872 | -81.45527 | 4311 ft | 233 kts | 270° |
| 2026-05-05 20:10 | 24.55857 | -81.47264 | 4186 ft | 222 kts | 270° |
| 2026-05-05 20:10 | 24.55844 | -81.48941 | 3981 ft | 217 kts | 270° |
| 2026-05-05 20:10 | 24.55834 | -81.50583 | 3764 ft | 214 kts | 270° |
| 2026-05-05 20:10 | 24.55825 | -81.52210 | 3543 ft | 212 kts | 270° |
| 2026-05-05 20:11 | 24.55816 | -81.53824 | 3316 ft | 210 kts | 270° |
| 2026-05-05 20:11 | 24.55803 | -81.55422 | 3106 ft | 207 kts | 270° |
| 2026-05-05 20:11 | 24.55789 | -81.56959 | 2896 ft | 194 kts | 270° |
| 2026-05-05 20:11 | 24.55775 | -81.58370 | 2678 ft | 177 kts | 270° |
| 2026-05-05 20:12 | 24.55762 | -81.59695 | 2493 ft | 171 kts | 270° |
| 2026-05-05 20:12 | 24.55750 | -81.60989 | 2312 ft | 169 kts | 270° |
| 2026-05-05 20:12 | 24.55738 | -81.62270 | 2133 ft | 167 kts | 271° |
| 2026-05-05 20:12 | 24.55728 | -81.63545 | 1953 ft | 167 kts | 271° |
| 2026-05-05 20:13 | 24.55717 | -81.64800 | 1794 ft | 157 kts | 271° |
| 2026-05-05 20:13 | 24.55707 | -81.65946 | 1620 ft | 145 kts | 271° |
| 2026-05-05 20:13 | 24.55697 | -81.67036 | 1470 ft | 141 kts | 271° |
| 2026-05-05 20:13 | 24.55687 | -81.68100 | 1287 ft | 139 kts | 271° |
| 2026-05-05 20:14 | 24.55675 | -81.69155 | 1105 ft | 138 kts | 271° |
| 2026-05-05 20:14 | 24.55664 | -81.70203 | 924 ft | 137 kts | 272° |
| 2026-05-05 20:14 | 24.55655 | -81.71249 | 747 ft | 137 kts | 273° |
| 2026-05-05 20:14 | 24.55645 | -81.72291 | 564 ft | 135 kts | 274° |
| 2026-05-05 20:15 | 24.55637 | -81.73317 | 395 ft | 137 kts | 273° |
| 2026-05-05 20:15 | 24.55624 | -81.74354 | 180 ft | 136 kts | 271° |
| 2026-05-05 20:15 | 24.55623 | -81.75389 | 28 ft | 135 kts | 273° |
| 2026-05-05 20:15 | 24.55608 | -81.76209 | 12 ft | 61 kts | 270° |
| 2026-05-05 20:16 | 24.55608 | -81.76585 | 14 ft | 25 kts | 269° |
| 2026-05-05 20:16 | 24.55563 | -81.76656 | 14 ft | 8 kts | 183° |
| 2026-05-05 20:16 | 24.55524 | -81.76619 | 15 ft | 9 kts | 111° |
| 2026-05-05 20:16 | 24.55520 | -81.76551 | 12 ft | 9 kts | 90° |
| 2026-05-05 20:17 | 24.55520 | -81.76482 | 12 ft | 9 kts | 89° |
| 2026-05-05 20:17 | 24.55521 | -81.76409 | 12 ft | 11 kts | 89° |
| 2026-05-05 20:17 | 24.55523 | -81.76331 | 13 ft | 10 kts | 89° |
| 2026-05-05 20:17 | 24.55523 | -81.76252 | 13 ft | 14 kts | 90° |
| 2026-05-05 20:18 | 24.55524 | -81.76119 | 13 ft | 18 kts | 89° |
| 2026-05-05 20:18 | 24.55527 | -81.75975 | 17 ft | 19 kts | 89° |
| 2026-05-05 20:18 | 24.55528 | -81.75846 | 19 ft | 14 kts | 90° |
| 2026-05-05 20:18 | 24.55528 | -81.75749 | 20 ft | 12 kts | 90° |
| 2026-05-05 20:19 | 24.55527 | -81.75664 | 20 ft | 11 kts | 90° |
| 2026-05-05 20:19 | 24.55528 | -81.75586 | 20 ft | 10 kts | 89° |
| 2026-05-05 20:19 | 24.55521 | -81.75528 | 22 ft | 5 kts | 140° |
| 2026-05-05 20:19 | 24.55484 | -81.75519 | 19 ft | 6 kts | 179° |
| 2026-05-05 20:20 | 24.55444 | -81.75519 | 19 ft | 6 kts | 179° |
| 2026-05-05 20:20 | 24.55427 | -81.75518 | 19 ft | 0 kts | 179° |